createdAt,value
2022-11-24T00:01:13.167Z,0.95
2022-11-24T00:03:40.367Z,1.00
2022-11-24T00:06:15.349Z,0.93
2022-11-24T00:08:44.632Z,0.89
2022-11-24T00:11:15.408Z,0.86
2022-11-24T00:13:43.194Z,0.88
2022-11-24T00:16:11.861Z,0.77
2022-11-24T00:18:40.369Z,0.83
2022-11-24T00:21:07.663Z,0.69
2022-11-24T00:23:35.637Z,0.59
2022-11-24T00:26:10.320Z,0.76
2022-11-24T00:28:38.328Z,0.68
2022-11-24T00:31:17.161Z,0.49
2022-11-24T00:33:45.426Z,0.62
2022-11-24T00:36:12.559Z,0.57
2022-11-24T00:38:39.649Z,0.68
2022-11-24T00:41:07.032Z,0.68
2022-11-24T00:43:34.273Z,0.69
2022-11-24T00:46:01.375Z,0.76
2022-11-24T00:48:28.850Z,0.81
2022-11-24T00:51:10.269Z,0.87
2022-11-24T00:53:37.835Z,0.78
2022-11-24T00:56:05.888Z,0.71
2022-11-24T00:58:33.846Z,0.83
2022-11-24T01:01:06.586Z,0.91
2022-11-24T01:03:34.424Z,0.85
2022-11-24T01:06:10.385Z,0.88
2022-11-24T01:08:38.548Z,0.84
2022-11-24T01:11:25.545Z,0.72
2022-11-24T01:13:55.709Z,0.82
2022-11-24T01:16:24.419Z,0.82
2022-11-24T01:18:52.277Z,0.85
2022-11-24T01:21:19.527Z,0.78
2022-11-24T01:23:46.864Z,0.84
2022-11-24T01:26:19.860Z,0.83
2022-11-24T01:28:47.938Z,0.88
2022-11-24T01:31:16.346Z,0.84
2022-11-24T01:33:43.544Z,0.85
2022-11-24T01:36:10.583Z,0.80
2022-11-24T01:38:37.708Z,0.83
2022-11-24T01:41:06.234Z,0.91
2022-11-24T01:43:34.212Z,0.72
2022-11-24T01:46:16.446Z,0.66
2022-11-24T01:48:49.395Z,0.75
2022-11-24T01:51:27.032Z,0.66
2022-11-24T01:53:59.666Z,0.79
2022-11-24T01:56:27.804Z,0.81
2022-11-24T01:58:59.293Z,0.80
2022-11-24T02:01:27.961Z,0.71
2022-11-24T02:03:56.494Z,0.74
2022-11-24T02:06:27.567Z,0.46
2022-11-24T02:08:59.633Z,0.48
2022-11-24T02:11:30.979Z,0.42
2022-11-24T02:13:58.185Z,0.33
2022-11-24T02:16:25.860Z,0.51
2022-11-24T02:18:53.282Z,0.62
2022-11-24T02:21:20.322Z,0.71
2022-11-24T02:23:47.307Z,0.78
2022-11-24T02:26:41.609Z,0.83
2022-11-24T02:29:10.552Z,0.80
2022-11-24T02:31:39.051Z,0.87
2022-11-24T02:34:06.166Z,0.92
2022-11-24T02:36:33.150Z,0.94
2022-11-24T02:39:00.144Z,0.97
2022-11-24T02:41:29.006Z,0.89
2022-11-24T02:43:58.720Z,0.98
2022-11-24T02:46:26.197Z,1.05
2022-11-24T02:48:53.609Z,0.98
2022-11-24T02:51:20.644Z,1.03
2022-11-24T02:53:47.654Z,0.96
2022-11-24T02:56:14.667Z,1.17
2022-11-24T02:58:41.658Z,1.17
2022-11-24T03:01:08.988Z,1.13
2022-11-24T03:03:36.164Z,1.21
2022-11-24T03:06:03.181Z,1.21
2022-11-24T03:08:30.440Z,1.11
2022-11-24T03:10:57.440Z,1.05
2022-11-24T03:13:24.530Z,1.09
2022-11-24T03:15:51.558Z,1.12
2022-11-24T03:18:18.853Z,1.16
2022-11-24T03:20:45.970Z,1.23
2022-11-24T03:23:12.963Z,1.24
2022-11-24T03:25:40.064Z,1.25
2022-11-24T03:28:07.248Z,1.28
2022-11-24T03:30:34.311Z,1.29
2022-11-24T03:33:01.239Z,1.26
2022-11-24T03:35:28.311Z,1.29
2022-11-24T03:37:55.330Z,1.40
2022-11-24T03:40:22.451Z,1.40
2022-11-24T03:42:49.525Z,1.38
2022-11-24T03:46:12.466Z,1.32
2022-11-24T03:48:03.734Z,1.27
2022-11-24T03:50:30.814Z,1.33
2022-11-24T03:52:58.082Z,1.24
2022-11-24T03:55:25.130Z,1.31
2022-11-24T03:57:52.140Z,1.39
2022-11-24T04:00:19.279Z,1.44
2022-11-24T04:02:46.396Z,1.46
2022-11-24T04:05:13.484Z,1.48
2022-11-24T04:07:40.764Z,1.45
2022-11-24T04:10:08.134Z,1.53
2022-11-24T04:12:44.148Z,1.48
2022-11-24T04:15:13.586Z,1.52
2022-11-24T04:17:40.914Z,1.51
2022-11-24T04:20:09.371Z,1.58
2022-11-24T04:22:36.656Z,1.61
2022-11-24T04:25:04.599Z,1.57
2022-11-24T04:27:33.830Z,1.65
2022-11-24T04:30:01.037Z,1.69
2022-11-24T04:32:28.653Z,1.68
2022-11-24T04:34:55.810Z,1.64
2022-11-24T04:37:23.085Z,1.68
2022-11-24T04:39:50.386Z,1.68
2022-11-24T04:42:17.453Z,1.62
2022-11-24T04:44:44.556Z,1.69
2022-11-24T04:47:21.310Z,1.70
2022-11-24T04:49:51.183Z,1.63
2022-11-24T04:52:20.160Z,1.70
2022-11-24T04:54:48.001Z,1.73
2022-11-24T04:57:25.553Z,1.75
2022-11-24T04:59:52.982Z,1.73
2022-11-24T05:02:20.661Z,1.73
2022-11-24T05:04:48.579Z,1.71
2022-11-24T05:07:19.070Z,1.62
2022-11-24T05:10:06.013Z,1.66
2022-11-24T05:12:33.233Z,1.66
2022-11-24T05:15:04.647Z,1.73
2022-11-24T05:17:34.420Z,1.71
2022-11-24T05:20:02.074Z,1.67
2022-11-24T05:22:29.960Z,1.70
2022-11-24T05:24:57.103Z,1.76
2022-11-24T05:27:24.136Z,1.75
2022-11-24T05:29:51.211Z,1.72
2022-11-24T05:32:18.283Z,1.73
2022-11-24T05:34:45.433Z,1.77
2022-11-24T05:40:15.406Z,1.74
2022-11-24T05:46:17.022Z,1.76
2022-11-24T05:48:45.317Z,1.75
2022-11-24T05:51:12.899Z,1.79
2022-11-24T05:53:40.786Z,1.75
2022-11-24T05:56:08.749Z,1.77
2022-11-24T05:58:36.557Z,1.79
2022-11-24T06:01:07.491Z,1.78
2022-11-24T06:38:53.162Z,1.67
2022-11-24T06:41:21.061Z,1.60
2022-11-24T06:43:48.881Z,1.63
2022-11-24T06:49:12.314Z,1.69
2022-11-24T06:51:39.935Z,1.75
2022-11-24T06:54:08.184Z,1.78
2022-11-24T06:56:35.533Z,1.76
2022-11-24T07:01:57.708Z,1.81
2022-11-24T07:04:24.911Z,1.84
2022-11-24T07:06:51.936Z,1.86
2022-11-24T07:09:18.990Z,1.84
2022-11-24T07:11:46.147Z,1.80
2022-11-24T07:14:13.304Z,1.82
2022-11-24T07:16:40.842Z,1.89
2022-11-24T07:19:10.635Z,1.89
2022-11-24T07:21:37.664Z,1.92
2022-11-24T07:24:05.144Z,1.92
2022-11-24T07:26:37.192Z,1.97
2022-11-24T07:29:05.428Z,2.03
2022-11-24T07:31:32.665Z,2.06
2022-11-24T07:33:59.725Z,2.11
2022-11-24T07:36:26.848Z,2.08
2022-11-24T07:38:53.993Z,2.06
2022-11-24T07:41:21.128Z,2.10
2022-11-24T07:43:49.120Z,2.08
2022-11-24T07:46:19.367Z,2.11
2022-11-24T07:48:47.005Z,2.16
2022-11-24T07:51:14.033Z,2.17
2022-11-24T07:53:41.149Z,2.19
2022-11-24T07:56:09.764Z,2.15
2022-11-24T07:58:37.607Z,2.18
2022-11-24T08:01:16.401Z,2.14
2022-11-24T08:03:45.004Z,2.11
2022-11-24T08:06:35.885Z,2.10
2022-11-24T08:09:00.030Z,2.03
2022-11-24T08:11:27.922Z,2.11
2022-11-24T08:13:54.869Z,2.11
2022-11-24T08:16:21.827Z,2.14
2022-11-24T08:18:56.242Z,2.13
2022-11-24T08:21:24.429Z,2.15
2022-11-24T08:23:56.441Z,2.21
2022-11-24T08:26:26.499Z,2.18
2022-11-24T08:28:57.284Z,2.19
2022-11-24T08:31:27.785Z,2.21
2022-11-24T08:33:56.894Z,2.21
2022-11-24T08:36:25.099Z,2.23
2022-11-24T08:38:58.669Z,2.18
2022-11-24T08:41:28.781Z,2.19
2022-11-24T08:43:57.051Z,2.19
2022-11-24T08:46:26.487Z,2.21
2022-11-24T08:48:56.736Z,2.17
2022-11-24T08:51:27.719Z,2.21
2022-11-24T08:54:01.199Z,2.12
2022-11-24T08:56:32.234Z,2.11
2022-11-24T08:59:01.303Z,2.10
2022-11-24T09:01:32.901Z,2.07
2022-11-24T09:04:00.823Z,2.11
2022-11-24T09:06:32.034Z,2.14
2022-11-24T09:09:00.466Z,2.03
2022-11-24T09:11:28.297Z,2.12
2022-11-24T09:14:00.705Z,2.16
2022-11-24T09:16:32.509Z,2.16
2022-11-24T09:19:05.509Z,2.08
2022-11-24T09:21:38.089Z,2.16
2022-11-24T09:24:10.346Z,2.14
2022-11-24T09:26:46.090Z,2.12
2022-11-24T09:29:15.792Z,2.04
2022-11-24T09:31:44.121Z,2.16
2022-11-24T09:34:16.284Z,2.15
2022-11-24T09:36:44.548Z,2.09
2022-11-24T09:39:12.829Z,2.13
2022-11-24T09:41:55.960Z,2.22
2022-11-24T09:45:00.297Z,2.20
2022-11-24T09:47:56.144Z,2.25
2022-11-24T09:50:32.186Z,2.23
2022-11-24T09:53:18.450Z,2.26
2022-11-24T09:56:04.343Z,2.30
2022-11-24T09:58:54.068Z,2.19
2022-11-24T10:01:31.877Z,2.18
2022-11-24T10:04:06.302Z,2.26
2022-11-24T10:06:48.994Z,2.28
2022-11-24T10:09:36.706Z,2.35
2022-11-24T10:12:10.813Z,2.46
2022-11-24T10:15:14.800Z,2.58
2022-11-24T10:18:05.157Z,2.59
2022-11-24T10:20:56.137Z,2.60
2022-11-24T10:23:46.862Z,2.63
2022-11-24T10:26:48.112Z,2.75
2022-11-24T10:29:42.144Z,2.81
2022-11-24T10:32:43.202Z,2.85
2022-11-24T10:35:23.936Z,2.88
2022-11-24T10:38:00.728Z,2.94
2022-11-24T10:43:29.735Z,2.92
2022-11-24T10:46:16.386Z,2.95
2022-11-24T10:49:07.198Z,2.94
2022-11-24T10:51:46.587Z,2.90
2022-11-24T10:54:22.498Z,3.01
2022-11-24T10:56:54.868Z,2.99
2022-11-24T10:59:31.345Z,3.00
2022-11-24T11:02:02.915Z,3.05
2022-11-24T11:04:35.204Z,3.05
2022-11-24T11:07:11.828Z,3.04
2022-11-24T11:09:41.080Z,3.06
2022-11-24T11:12:43.489Z,3.07
2022-11-24T11:15:35.097Z,2.94
2022-11-24T11:18:08.748Z,3.07
2022-11-24T11:20:38.575Z,3.13
2022-11-24T11:23:39.713Z,3.17
2022-11-24T11:26:58.606Z,3.07
2022-11-24T11:35:14.539Z,2.79
2022-11-24T11:37:45.658Z,2.83
2022-11-24T11:40:24.203Z,2.71
2022-11-24T11:43:06.863Z,2.62
2022-11-24T11:45:38.518Z,2.48
2022-11-24T11:48:18.493Z,2.40
2022-11-24T11:54:18.139Z,2.37
2022-11-24T11:56:52.257Z,2.26
2022-11-24T11:59:40.089Z,2.15
2022-11-24T12:02:23.812Z,2.23
2022-11-24T12:04:59.493Z,2.17
2022-11-24T12:07:47.412Z,2.07
2022-11-24T12:10:25.251Z,2.16
2022-11-24T12:13:19.513Z,2.33
2022-11-24T12:15:50.290Z,2.52
2022-11-24T12:18:55.912Z,2.54
2022-11-24T12:21:26.462Z,2.75
2022-11-24T12:24:18.999Z,2.42
2022-11-24T12:26:53.686Z,2.53
2022-11-24T12:29:33.009Z,2.48
2022-11-24T12:32:47.918Z,2.45
2022-11-24T12:35:37.708Z,2.26
2022-11-24T12:38:28.270Z,2.17
2022-11-24T12:41:33.248Z,2.12
2022-11-24T12:43:53.306Z,2.03
2022-11-24T12:46:45.355Z,2.09
2022-11-24T12:49:47.455Z,1.89
2022-11-24T12:52:18.366Z,2.00
2022-11-24T12:54:46.693Z,1.89
2022-11-24T12:57:34.789Z,1.84
2022-11-24T13:00:17.205Z,1.79
2022-11-24T13:02:56.615Z,1.70
2022-11-24T13:05:23.567Z,1.68
2022-11-24T13:08:01.074Z,1.75
2022-11-24T13:13:30.256Z,1.69
2022-11-24T13:16:35.153Z,1.70
2022-11-24T13:19:02.853Z,1.75
2022-11-24T13:21:45.990Z,1.63
2022-11-24T13:24:19.202Z,1.67
2022-11-24T13:26:49.101Z,1.59
2022-11-24T13:29:34.464Z,1.63
2022-11-24T13:32:29.232Z,1.63
2022-11-24T13:35:13.711Z,1.64
2022-11-24T13:37:42.077Z,1.60
2022-11-24T13:40:12.179Z,1.50
2022-11-24T13:42:54.425Z,1.60
2022-11-24T13:45:39.858Z,1.54
2022-11-24T13:48:22.475Z,1.58
2022-11-24T13:50:50.071Z,1.61
2022-11-24T13:53:32.176Z,1.39
2022-11-24T13:56:14.307Z,1.37
2022-11-24T13:58:46.534Z,1.37
2022-11-24T14:01:16.487Z,1.32
2022-11-24T14:04:33.648Z,1.27
2022-11-24T14:07:08.699Z,1.19
2022-11-24T14:09:39.016Z,1.20
2022-11-24T14:12:16.898Z,1.24
2022-11-24T14:15:13.925Z,1.17
2022-11-24T14:17:43.158Z,1.16
2022-11-24T14:20:29.674Z,1.18
2022-11-24T14:22:58.443Z,1.26
2022-11-24T14:25:32.566Z,1.37
2022-11-24T14:28:01.135Z,1.21
2022-11-24T14:30:28.835Z,1.17
2022-11-24T14:33:00.487Z,1.32
2022-11-24T14:35:44.445Z,1.27
2022-11-24T14:38:13.180Z,1.37
2022-11-24T14:40:53.473Z,1.49
2022-11-24T14:43:27.100Z,1.48
2022-11-24T14:46:00.387Z,1.42
2022-11-24T14:48:33.747Z,1.40
2022-11-24T14:51:18.759Z,1.47
2022-11-24T14:53:50.322Z,1.50
2022-11-24T14:56:27.950Z,1.56
2022-11-24T14:58:59.028Z,1.56
2022-11-24T15:01:33.298Z,1.24
2022-11-24T15:04:39.005Z,1.31
2022-11-24T15:07:31.928Z,1.29
2022-11-24T15:10:02.243Z,1.36
2022-11-24T15:12:31.129Z,1.44
2022-11-24T15:15:03.425Z,1.56
2022-11-24T15:17:31.320Z,1.66
2022-11-24T15:20:03.783Z,1.74
2022-11-24T15:22:40.700Z,1.74
2022-11-24T15:25:26.448Z,1.84
2022-11-24T15:27:53.694Z,1.86
2022-11-24T15:30:21.418Z,1.87
2022-11-24T15:32:59.755Z,1.92
2022-11-24T15:35:33.929Z,1.96
2022-11-24T15:38:01.465Z,1.99
2022-11-24T15:40:28.880Z,1.93
2022-11-24T15:43:00.780Z,1.92
2022-11-24T15:45:34.803Z,1.92
2022-11-24T15:48:02.112Z,1.94
2022-11-24T15:50:29.831Z,1.80
2022-11-24T15:52:58.037Z,1.62
2022-11-24T15:55:25.481Z,1.70
2022-11-24T15:57:53.191Z,1.85
2022-11-24T16:00:23.668Z,1.88
2022-11-24T16:02:51.427Z,1.80
2022-11-24T16:05:19.118Z,1.86
2022-11-24T16:07:46.492Z,1.90
2022-11-24T16:10:36.354Z,1.73
2022-11-24T16:13:06.624Z,1.71
2022-11-24T16:15:34.512Z,1.80
2022-11-24T16:18:08.498Z,1.80
2022-11-24T16:20:38.577Z,1.81
2022-11-24T16:23:08.095Z,1.81
2022-11-24T16:25:38.568Z,1.88
2022-11-24T16:28:08.886Z,1.92
2022-11-24T16:30:39.828Z,1.89
2022-11-24T16:33:12.700Z,1.63
2022-11-24T16:35:42.875Z,1.82
2022-11-24T16:38:23.031Z,1.89
2022-11-24T16:40:57.053Z,1.89
2022-11-24T16:43:27.583Z,1.95
2022-11-24T16:46:20.471Z,2.00
2022-11-24T16:48:50.134Z,2.01
2022-11-24T16:51:18.991Z,2.02
2022-11-24T16:53:47.074Z,2.04
2022-11-24T16:56:16.706Z,2.04
2022-11-24T16:58:44.442Z,1.99
2022-11-24T17:01:13.641Z,2.04
2022-11-24T17:03:41.299Z,2.01
2022-11-24T17:06:13.432Z,2.02
2022-11-24T17:08:41.563Z,2.04
2022-11-24T17:11:20.337Z,2.05
2022-11-24T17:13:49.332Z,2.07
2022-11-24T17:16:21.718Z,2.04
2022-11-24T17:18:56.938Z,2.07
2022-11-24T17:21:28.065Z,2.05
2022-11-24T17:23:58.870Z,2.08
2022-11-24T17:26:28.086Z,2.08
2022-11-24T17:28:56.228Z,2.08
2022-11-24T17:31:27.660Z,2.09
2022-11-24T17:33:57.029Z,2.08
2022-11-24T17:36:25.477Z,2.05
2022-11-24T17:38:53.483Z,2.04
2022-11-24T17:41:22.168Z,2.07
2022-11-24T17:43:55.899Z,2.05
2022-11-24T17:46:24.779Z,2.06
2022-11-24T17:48:53.005Z,2.06
2022-11-24T17:51:23.020Z,2.05
2022-11-24T17:53:52.491Z,2.07
2022-11-24T17:56:23.978Z,2.07
2022-11-24T17:58:59.315Z,2.07
2022-11-24T18:01:30.339Z,2.07
2022-11-24T18:03:59.306Z,2.07
2022-11-24T18:06:29.058Z,2.06
2022-11-24T18:08:58.272Z,2.04
2022-11-24T18:11:31.531Z,1.96
2022-11-24T18:14:03.043Z,1.95
2022-11-24T18:16:35.380Z,2.01
2022-11-24T18:19:10.161Z,2.01
2022-11-24T18:21:42.583Z,2.04
2022-11-24T18:24:12.415Z,2.03
2022-11-24T18:26:42.213Z,2.03
2022-11-24T18:29:11.145Z,2.02
2022-11-24T18:31:40.008Z,2.03
2022-11-24T18:34:07.928Z,2.01
2022-11-24T18:36:36.666Z,2.04
2022-11-24T18:39:09.994Z,2.04
2022-11-24T18:41:38.664Z,1.99
2022-11-24T18:44:08.769Z,1.96
2022-11-24T18:46:37.575Z,1.82
2022-11-24T18:49:06.572Z,1.73
2022-11-24T18:51:34.189Z,1.86
2022-11-24T18:54:03.624Z,1.80
2022-11-24T18:56:31.827Z,1.75
2022-11-24T18:59:00.242Z,1.86
2022-11-24T19:01:29.297Z,1.90
2022-11-24T19:03:59.313Z,1.93
2022-11-24T19:06:35.590Z,1.95
2022-11-24T19:09:09.628Z,1.95
2022-11-24T19:11:39.185Z,1.95
